createdAt,value
2022-10-04T00:01:45.250Z,16.60
2022-10-04T00:04:17.851Z,16.60
2022-10-04T00:06:55.202Z,16.60
2022-10-04T00:09:26.340Z,16.60
2022-10-04T00:11:55.901Z,16.59
2022-10-04T00:14:32.914Z,16.58
2022-10-04T00:17:07.984Z,16.56
2022-10-04T00:19:43.299Z,16.56
2022-10-04T00:22:13.278Z,16.57
2022-10-04T00:25:13.616Z,16.54
2022-10-04T00:28:01.039Z,16.55
2022-10-04T00:30:37.282Z,16.53
2022-10-04T00:33:04.659Z,16.55
2022-10-04T00:35:31.111Z,16.52
2022-10-04T00:37:59.681Z,16.50
2022-10-04T00:40:54.214Z,16.47
2022-10-04T00:43:33.873Z,16.48
2022-10-04T00:46:29.431Z,16.46
2022-10-04T00:49:04.369Z,16.46
2022-10-04T00:51:54.641Z,16.42
2022-10-04T00:54:42.148Z,16.40
2022-10-04T00:57:15.447Z,16.41
2022-10-04T00:59:46.105Z,16.40
2022-10-04T01:02:43.277Z,16.39
2022-10-04T01:05:15.114Z,16.38
2022-10-04T01:07:45.629Z,16.35
2022-10-04T01:10:27.468Z,16.34
2022-10-04T01:12:56.718Z,16.32
2022-10-04T01:15:42.827Z,16.29
2022-10-04T01:18:16.159Z,16.27
2022-10-04T01:20:57.844Z,16.24
2022-10-04T01:23:57.790Z,16.21
2022-10-04T01:26:29.156Z,16.21
2022-10-04T01:29:24.289Z,16.16
2022-10-04T01:31:53.980Z,16.16
2022-10-04T01:34:27.997Z,16.16
2022-10-04T01:36:57.582Z,16.14
2022-10-04T01:39:25.938Z,16.16
2022-10-04T01:42:10.941Z,16.18
2022-10-04T01:45:19.135Z,16.19
2022-10-04T01:48:01.650Z,16.23
2022-10-04T01:50:32.940Z,16.25
2022-10-04T01:53:14.927Z,16.25
2022-10-04T01:55:45.401Z,16.21
2022-10-04T01:58:21.517Z,16.22
2022-10-04T02:00:57.428Z,16.23
2022-10-04T02:03:34.172Z,16.25
2022-10-04T02:06:05.076Z,16.26
2022-10-04T02:08:35.635Z,16.29
2022-10-04T02:11:04.921Z,16.28
2022-10-04T02:13:37.516Z,16.27
2022-10-04T02:16:08.828Z,16.21
2022-10-04T02:18:38.245Z,16.18
2022-10-04T02:21:06.567Z,16.16
2022-10-04T02:23:35.422Z,16.11
2022-10-04T02:26:06.931Z,16.06
2022-10-04T02:28:35.035Z,16.02
2022-10-04T02:31:22.084Z,15.99
2022-10-04T02:33:57.215Z,15.91
2022-10-04T02:36:27.721Z,15.87
2022-10-04T02:39:02.786Z,15.85
2022-10-04T02:41:35.854Z,15.83
2022-10-04T02:44:15.990Z,15.81
2022-10-04T02:46:48.340Z,15.82
2022-10-04T02:49:26.794Z,15.80
2022-10-04T02:52:02.185Z,15.80
2022-10-04T02:54:52.730Z,15.78
2022-10-04T02:57:21.755Z,15.78
2022-10-04T02:59:49.032Z,15.73
2022-10-04T03:02:29.865Z,15.69
2022-10-04T03:05:11.030Z,15.67
2022-10-04T03:07:38.905Z,15.65
2022-10-04T03:10:12.003Z,15.63
2022-10-04T03:12:42.127Z,15.61
2022-10-04T03:15:15.450Z,15.57
2022-10-04T03:17:43.988Z,15.56
2022-10-04T03:20:15.847Z,15.55
2022-10-04T03:22:47.137Z,15.52
2022-10-04T03:25:21.234Z,15.51
2022-10-04T03:27:49.556Z,15.50
2022-10-04T03:30:20.143Z,15.50
2022-10-04T03:32:48.263Z,15.50
2022-10-04T03:35:37.300Z,15.48
2022-10-04T03:38:11.068Z,15.49
2022-10-04T03:40:41.813Z,15.46
2022-10-04T03:43:12.435Z,15.43
2022-10-04T03:45:40.797Z,15.41
2022-10-04T03:48:13.498Z,15.37
2022-10-04T03:50:46.981Z,15.34
2022-10-04T03:53:51.487Z,15.30
2022-10-04T03:56:31.027Z,15.30
2022-10-04T03:58:58.835Z,15.29
2022-10-04T04:01:50.738Z,15.25
2022-10-04T04:04:31.165Z,15.23
2022-10-04T04:07:12.957Z,15.22
2022-10-04T04:09:51.124Z,15.19
2022-10-04T04:12:25.782Z,15.16
2022-10-04T04:14:54.062Z,15.13
2022-10-04T04:17:27.165Z,15.12
2022-10-04T04:19:57.573Z,15.07
2022-10-04T04:22:24.874Z,15.05
2022-10-04T04:24:52.060Z,15.03
2022-10-04T04:27:19.939Z,15.00
2022-10-04T04:29:52.657Z,15.00
2022-10-04T04:32:31.672Z,15.00
2022-10-04T04:35:06.998Z,14.96
2022-10-04T04:37:35.417Z,14.93
2022-10-04T04:40:19.734Z,14.91
2022-10-04T04:42:47.654Z,14.88
2022-10-04T04:45:19.808Z,14.86
2022-10-04T04:47:50.568Z,14.85
2022-10-04T04:50:18.965Z,14.82
2022-10-04T04:52:54.929Z,14.83
2022-10-04T04:55:49.990Z,14.83
2022-10-04T04:58:26.909Z,14.82
2022-10-04T05:01:01.562Z,14.80
2022-10-04T05:03:31.126Z,14.75
2022-10-04T05:06:02.763Z,14.71
2022-10-04T05:08:31.574Z,14.66
2022-10-04T05:10:57.973Z,14.61
2022-10-04T05:16:34.706Z,14.55
2022-10-04T05:19:05.474Z,14.55
2022-10-04T05:21:34.813Z,14.54
2022-10-04T05:24:19.962Z,14.52
2022-10-04T05:26:50.169Z,14.53
2022-10-04T05:29:20.000Z,14.51
2022-10-04T05:31:58.536Z,14.46
2022-10-04T05:34:29.024Z,14.42
2022-10-04T05:37:10.260Z,14.43
2022-10-04T05:39:43.419Z,14.42
2022-10-04T05:42:28.989Z,14.42
2022-10-04T05:44:58.479Z,14.44
2022-10-04T05:47:30.476Z,14.43
2022-10-04T05:50:00.868Z,14.45
2022-10-04T05:52:36.059Z,14.44
2022-10-04T05:55:55.613Z,14.43
2022-10-04T05:59:01.314Z,14.41
2022-10-04T06:01:37.566Z,14.37
2022-10-04T06:04:36.676Z,14.34
2022-10-04T06:07:40.516Z,14.31
2022-10-04T06:10:37.119Z,14.29
2022-10-04T06:13:25.980Z,14.30
2022-10-04T06:16:20.566Z,14.31
2022-10-04T06:19:10.123Z,14.33
2022-10-04T06:22:06.510Z,14.35
2022-10-04T06:24:37.597Z,14.35
2022-10-04T06:27:13.226Z,14.40
2022-10-04T06:29:46.552Z,14.38
2022-10-04T06:32:28.169Z,14.38
2022-10-04T06:35:10.636Z,14.40
2022-10-04T06:38:06.525Z,14.40
2022-10-04T06:41:14.150Z,14.40
2022-10-04T06:44:12.538Z,14.42
2022-10-04T06:46:50.099Z,14.46
2022-10-04T06:49:42.906Z,14.46
2022-10-04T06:52:37.302Z,14.49
2022-10-04T06:55:25.958Z,14.53
2022-10-04T06:58:23.770Z,14.56
2022-10-04T07:00:58.578Z,14.60
2022-10-04T07:03:43.642Z,14.65
2022-10-04T07:06:13.055Z,14.66
2022-10-04T07:08:41.396Z,14.66
2022-10-04T07:11:13.686Z,14.69
2022-10-04T07:14:13.561Z,14.71
2022-10-04T07:16:56.305Z,14.77
2022-10-04T07:19:31.151Z,14.87
2022-10-04T07:22:06.682Z,15.00
2022-10-04T07:24:51.033Z,15.11
2022-10-04T07:27:23.470Z,15.24
2022-10-04T07:29:55.398Z,15.37
2022-10-04T07:32:27.366Z,15.47
2022-10-04T07:35:09.201Z,15.61
2022-10-04T07:37:58.065Z,15.76
2022-10-04T07:40:33.489Z,15.94
2022-10-04T07:43:06.006Z,16.12
2022-10-04T07:45:37.252Z,16.28
2022-10-04T07:48:13.558Z,16.42
2022-10-04T07:50:58.195Z,16.56
2022-10-04T07:53:37.521Z,16.75
2022-10-04T07:56:17.590Z,16.93
2022-10-04T07:59:15.787Z,17.08
2022-10-04T08:02:16.573Z,17.23
2022-10-04T08:05:18.295Z,17.39
2022-10-04T08:08:09.065Z,17.55
2022-10-04T08:10:57.423Z,17.74
2022-10-04T08:13:47.235Z,17.90
2022-10-04T08:16:33.145Z,18.06
2022-10-04T08:19:37.604Z,18.24
2022-10-04T08:22:16.750Z,18.43
2022-10-04T08:24:53.747Z,18.58
2022-10-04T08:27:39.526Z,18.66
2022-10-04T08:30:09.372Z,18.75
2022-10-04T08:32:51.270Z,18.92
2022-10-04T08:35:20.849Z,19.11
2022-10-04T08:38:02.646Z,19.28
2022-10-04T08:40:44.759Z,19.43
2022-10-04T08:43:20.301Z,19.58
2022-10-04T08:45:56.331Z,19.72
2022-10-04T08:48:35.362Z,19.86
2022-10-04T08:51:10.829Z,20.03
2022-10-04T08:54:04.572Z,20.17
2022-10-04T08:56:33.948Z,20.30
2022-10-04T08:59:46.490Z,20.40
2022-10-04T09:02:57.188Z,20.53
2022-10-04T09:06:07.723Z,20.63
2022-10-04T09:08:52.691Z,20.76
2022-10-04T09:11:41.410Z,20.88
2022-10-04T09:14:14.346Z,20.93
2022-10-04T09:16:48.454Z,20.96
2022-10-04T09:19:39.931Z,20.99
2022-10-04T09:22:30.382Z,21.06
2022-10-04T09:25:09.115Z,21.14
2022-10-04T09:27:55.073Z,21.19
2022-10-04T09:30:25.101Z,21.26
2022-10-04T09:32:59.328Z,21.35
2022-10-04T09:35:54.844Z,21.42
2022-10-04T09:39:05.873Z,21.53
2022-10-04T09:41:45.902Z,21.64
2022-10-04T09:44:44.073Z,21.69
2022-10-04T09:47:31.902Z,21.71
2022-10-04T09:50:26.589Z,21.79
2022-10-04T09:53:31.397Z,21.91
2022-10-04T09:56:09.115Z,22.04
2022-10-04T09:58:46.326Z,22.13
2022-10-04T10:01:28.268Z,22.24
2022-10-04T10:04:32.949Z,22.30
2022-10-04T10:07:21.037Z,22.43
2022-10-04T10:10:38.094Z,22.55
2022-10-04T10:13:49.509Z,22.72
2022-10-04T10:16:42.019Z,22.78
2022-10-04T10:19:57.043Z,22.79
2022-10-04T10:23:00.489Z,22.86
2022-10-04T10:25:39.407Z,22.95
2022-10-04T10:28:17.755Z,23.00
2022-10-04T10:31:14.144Z,23.05
2022-10-04T10:34:14.461Z,23.18
2022-10-04T10:37:09.062Z,23.33
2022-10-04T10:40:03.001Z,23.39
2022-10-04T10:42:40.074Z,23.50
2022-10-04T10:45:45.767Z,23.61
2022-10-04T10:48:35.339Z,23.71
2022-10-04T10:51:10.807Z,23.79
2022-10-04T10:54:09.901Z,23.82
2022-10-04T10:57:00.731Z,23.84
2022-10-04T11:00:01.328Z,23.82
2022-10-04T11:03:23.915Z,23.84
2022-10-04T11:06:06.120Z,23.94
2022-10-04T11:09:06.576Z,24.08
2022-10-04T11:11:58.040Z,24.20
2022-10-04T11:14:47.095Z,24.15
2022-10-04T11:17:38.187Z,24.16
2022-10-04T11:20:16.621Z,24.22
2022-10-04T11:23:02.062Z,24.31
2022-10-04T11:25:48.762Z,24.39
2022-10-04T11:28:57.453Z,24.49
2022-10-04T11:31:55.897Z,24.65
2022-10-04T11:35:22.285Z,24.73
2022-10-04T11:38:15.741Z,24.87
2022-10-04T11:41:07.242Z,24.94
2022-10-04T11:43:36.701Z,25.05
2022-10-04T11:46:20.768Z,25.16
2022-10-04T11:49:24.578Z,25.18
2022-10-04T11:52:22.785Z,25.21
2022-10-04T11:55:10.669Z,25.23
2022-10-04T11:58:14.578Z,25.17
2022-10-04T12:01:08.742Z,25.21
2022-10-04T12:03:47.582Z,25.30
2022-10-04T12:06:26.125Z,25.38
2022-10-04T12:08:59.411Z,25.46
2022-10-04T12:12:13.148Z,25.43
2022-10-04T12:15:00.109Z,25.46
2022-10-04T12:17:47.874Z,25.48
2022-10-04T12:20:40.072Z,25.55
2022-10-04T12:23:29.079Z,25.62
2022-10-04T12:26:20.313Z,25.70
2022-10-04T12:28:59.017Z,25.71
2022-10-04T12:31:34.635Z,25.64
2022-10-04T12:34:32.061Z,25.67
2022-10-04T12:37:16.850Z,25.77
2022-10-04T12:39:51.403Z,25.82
2022-10-04T12:42:36.125Z,25.85
2022-10-04T12:45:53.806Z,25.85
2022-10-04T12:48:27.650Z,25.90
2022-10-04T12:51:04.606Z,25.98
2022-10-04T12:54:01.204Z,26.07
2022-10-04T12:56:58.829Z,26.08
2022-10-04T12:59:37.222Z,26.07
2022-10-04T13:02:22.255Z,26.07
2022-10-04T13:05:28.249Z,26.08
2022-10-04T13:08:01.558Z,26.17
2022-10-04T13:10:44.666Z,26.20
2022-10-04T13:13:31.531Z,26.27
2022-10-04T13:19:05.978Z,26.38
2022-10-04T13:21:41.150Z,26.43
2022-10-04T13:24:55.010Z,26.50
2022-10-04T13:27:30.900Z,26.57
2022-10-04T13:30:15.149Z,26.60
2022-10-04T13:33:18.272Z,26.64
2022-10-04T13:35:47.469Z,26.65
2022-10-04T13:38:27.742Z,26.62
2022-10-04T13:41:30.972Z,26.57
2022-10-04T13:44:24.681Z,26.57
2022-10-04T13:46:54.159Z,26.54
2022-10-04T13:49:28.130Z,26.51
2022-10-04T13:52:22.375Z,26.53
2022-10-04T13:55:24.465Z,26.50
2022-10-04T13:58:15.371Z,26.45
2022-10-04T14:01:00.821Z,26.41
2022-10-04T14:03:47.086Z,26.44
2022-10-04T14:06:44.462Z,26.48
2022-10-04T14:09:45.306Z,26.46
2022-10-04T14:12:45.773Z,26.41
2022-10-04T14:15:43.297Z,26.36
2022-10-04T14:18:12.546Z,26.29
2022-10-04T14:21:00.430Z,26.20
2022-10-04T14:23:53.878Z,26.11
2022-10-04T14:26:29.970Z,25.95
2022-10-04T14:29:35.641Z,25.82
2022-10-04T14:32:32.650Z,25.75
2022-10-04T14:35:18.445Z,25.71
2022-10-04T14:38:08.249Z,25.58
2022-10-04T14:40:59.982Z,25.52
2022-10-04T14:44:16.007Z,25.49
2022-10-04T14:46:58.167Z,25.44
2022-10-04T14:49:51.623Z,25.38
2022-10-04T14:52:56.849Z,25.32
2022-10-04T14:55:55.218Z,25.26
2022-10-04T14:58:55.867Z,25.19
2022-10-04T15:01:30.099Z,25.14
2022-10-04T15:04:44.202Z,25.00
2022-10-04T15:07:21.997Z,24.90
2022-10-04T15:10:14.624Z,24.79
2022-10-04T15:13:12.256Z,24.63
2022-10-04T15:15:55.980Z,24.47
2022-10-04T15:18:56.683Z,24.36
2022-10-04T15:21:50.191Z,24.28
2022-10-04T15:24:27.666Z,24.24
2022-10-04T15:27:29.220Z,24.17
2022-10-04T15:30:17.590Z,24.09
2022-10-04T15:32:47.108Z,23.99
2022-10-04T15:35:28.857Z,23.93
2022-10-04T15:38:20.198Z,23.86
2022-10-04T15:41:13.429Z,23.69
2022-10-04T15:44:07.679Z,23.61
2022-10-04T15:47:15.278Z,23.52
2022-10-04T15:50:23.485Z,23.45
2022-10-04T15:53:19.625Z,23.41
2022-10-04T15:56:06.274Z,23.31
2022-10-04T15:58:53.038Z,23.25
2022-10-04T16:01:31.900Z,23.19
2022-10-04T16:04:18.143Z,23.12
2022-10-04T16:06:54.194Z,23.09
2022-10-04T16:09:29.514Z,23.03
2022-10-04T16:11:56.055Z,22.99
2022-10-04T16:14:31.988Z,22.94
2022-10-04T16:17:09.688Z,22.90
2022-10-04T16:19:46.109Z,22.85
2022-10-04T16:22:17.518Z,22.77
2022-10-04T16:24:53.315Z,22.71
2022-10-04T16:27:42.062Z,22.61
2022-10-04T16:30:28.212Z,22.49
2022-10-04T16:32:58.313Z,22.42
2022-10-04T16:35:39.906Z,22.36
2022-10-04T16:38:12.298Z,22.32
2022-10-04T16:40:59.045Z,22.25
2022-10-04T16:43:29.516Z,22.20
2022-10-04T16:46:23.113Z,22.14
2022-10-04T16:48:58.527Z,22.08
2022-10-04T16:51:46.720Z,21.99
2022-10-04T16:54:31.434Z,21.92
2022-10-04T16:56:57.958Z,21.83
2022-10-04T16:59:39.519Z,21.74
2022-10-04T17:02:26.195Z,21.67
2022-10-04T17:05:22.386Z,21.58
2022-10-04T17:08:16.810Z,21.49
2022-10-04T17:10:49.339Z,21.40
2022-10-04T17:13:30.566Z,21.34
2022-10-04T17:16:16.157Z,21.26
2022-10-04T17:19:08.068Z,21.19
2022-10-04T17:21:48.278Z,21.12
2022-10-04T17:24:34.299Z,21.01
2022-10-04T17:27:26.024Z,20.92
2022-10-04T17:30:22.246Z,20.82
2022-10-04T17:33:22.710Z,20.72
2022-10-04T17:36:16.957Z,20.61
2022-10-04T17:39:05.294Z,20.48
2022-10-04T17:41:50.238Z,20.36
2022-10-04T17:44:34.149Z,20.28
2022-10-04T17:47:24.308Z,20.23
2022-10-04T17:50:23.626Z,20.20
2022-10-04T17:53:18.434Z,20.14
2022-10-04T17:56:00.330Z,20.09
2022-10-04T17:58:51.236Z,20.06
2022-10-04T18:01:38.037Z,20.02
2022-10-04T18:04:26.343Z,19.99
2022-10-04T18:07:04.305Z,19.99
2022-10-04T18:09:41.705Z,19.95
2022-10-04T18:12:10.860Z,19.95
2022-10-04T18:15:07.347Z,19.92
2022-10-04T18:17:38.639Z,19.93
2022-10-04T18:20:27.034Z,19.92
2022-10-04T18:23:17.732Z,19.93
2022-10-04T18:25:46.265Z,19.94
2022-10-04T18:28:21.664Z,19.89
2022-10-04T18:31:26.916Z,19.87
2022-10-04T18:34:01.524Z,19.88
2022-10-04T18:36:33.439Z,19.90
2022-10-04T18:39:12.124Z,19.90
2022-10-04T18:41:57.996Z,19.92
2022-10-04T18:44:41.762Z,19.90
2022-10-04T18:47:33.478Z,19.89
2022-10-04T18:50:06.688Z,19.83
2022-10-04T18:52:48.132Z,19.79
2022-10-04T18:55:18.504Z,19.71
2022-10-04T18:58:11.999Z,19.67
2022-10-04T19:01:02.152Z,19.62
2022-10-04T19:06:28.563Z,19.56
2022-10-04T19:08:58.630Z,19.54
2022-10-04T19:11:43.114Z,19.52
2022-10-04T19:14:24.832Z,19.51
2022-10-04T19:17:03.094Z,19.48
2022-10-04T19:20:18.521Z,19.45
2022-10-04T19:23:00.937Z,19.41
2022-10-04T19:26:17.610Z,19.38
2022-10-04T19:28:39.552Z,19.35
2022-10-04T19:31:13.657Z,19.32
2022-10-04T19:34:14.260Z,19.27
2022-10-04T19:37:09.010Z,19.24
2022-10-04T19:39:56.317Z,19.21
2022-10-04T19:42:41.470Z,19.17
2022-10-04T19:45:21.857Z,19.17
2022-10-04T19:47:58.355Z,19.18
2022-10-04T19:50:37.117Z,19.16
2022-10-04T19:53:22.223Z,19.13
2022-10-04T19:55:58.453Z,19.09
2022-10-04T19:58:41.692Z,19.02
2022-10-04T20:01:21.370Z,19.01
2022-10-04T20:04:10.671Z,18.99
2022-10-04T20:06:40.687Z,18.94
2022-10-04T20:09:26.338Z,18.95
2022-10-04T20:11:53.226Z,18.97
2022-10-04T20:14:23.424Z,18.99
2022-10-04T20:16:50.457Z,19.01
2022-10-04T20:19:29.341Z,19.05
2022-10-04T20:22:18.385Z,19.08
2022-10-04T20:24:44.868Z,19.09
2022-10-04T20:27:20.627Z,19.11
2022-10-04T20:29:53.069Z,19.13
2022-10-04T20:32:37.555Z,19.12
2022-10-04T20:35:10.276Z,19.14
2022-10-04T20:38:13.897Z,19.16
2022-10-04T20:40:45.794Z,19.21
2022-10-04T20:43:15.394Z,19.21
2022-10-04T20:45:51.317Z,19.20
2022-10-04T20:48:20.965Z,19.22
2022-10-04T20:50:49.719Z,19.23
2022-10-04T20:53:25.842Z,19.24
2022-10-04T20:56:11.858Z,19.24
2022-10-04T20:58:40.296Z,19.26
2022-10-04T21:01:46.556Z,19.26
2022-10-04T21:04:33.581Z,19.27
2022-10-04T21:07:02.239Z,19.28
2022-10-04T21:09:31.105Z,19.30
2022-10-04T21:11:58.531Z,19.29
2022-10-04T21:14:34.468Z,19.30
2022-10-04T21:17:03.344Z,19.32
2022-10-04T21:19:30.192Z,19.33
2022-10-04T21:21:58.510Z,19.33
2022-10-04T21:24:49.402Z,19.31
2022-10-04T21:27:48.406Z,19.32
2022-10-04T21:30:17.365Z,19.34
2022-10-04T21:32:44.059Z,19.32
2022-10-04T21:35:12.798Z,19.29
2022-10-04T21:37:39.279Z,19.28
2022-10-04T21:40:06.916Z,19.27
2022-10-04T21:42:33.573Z,19.26
2022-10-04T21:45:01.558Z,19.28
2022-10-04T21:47:28.021Z,19.28
2022-10-04T21:49:55.103Z,19.26
2022-10-04T21:52:21.731Z,19.25
2022-10-04T21:54:49.473Z,19.23
2022-10-04T21:57:15.965Z,19.22
2022-10-04T21:59:42.414Z,19.22
2022-10-04T22:02:08.917Z,19.22
2022-10-04T22:04:38.008Z,19.23
2022-10-04T22:07:04.717Z,19.25
2022-10-04T22:09:32.573Z,19.28
2022-10-04T22:11:59.037Z,19.28
2022-10-04T22:14:29.776Z,19.29
2022-10-04T22:16:56.294Z,19.29
2022-10-04T22:19:22.800Z,19.30
2022-10-04T22:21:49.292Z,19.30
2022-10-04T22:24:19.583Z,19.30
2022-10-04T22:26:46.918Z,19.30
2022-10-04T22:29:15.688Z,19.28
2022-10-04T22:31:46.607Z,19.26
2022-10-04T22:34:19.825Z,19.25
2022-10-04T22:36:48.789Z,19.25
2022-10-04T22:39:17.871Z,19.24
2022-10-04T22:41:47.278Z,19.24
2022-10-04T22:44:29.364Z,19.23
2022-10-04T22:46:59.172Z,19.23
2022-10-04T22:49:31.537Z,19.22
2022-10-04T22:51:59.578Z,19.22
2022-10-04T22:54:33.510Z,19.23
2022-10-04T22:57:00.105Z,19.25
2022-10-04T22:59:38.917Z,19.25
2022-10-04T23:02:29.217Z,19.24
2022-10-04T23:05:09.999Z,19.24
2022-10-04T23:07:38.569Z,19.23
2022-10-04T23:10:06.313Z,19.21
2022-10-04T23:12:32.842Z,19.21
2022-10-04T23:15:06.297Z,19.21
2022-10-04T23:17:39.800Z,19.21
2022-10-04T23:20:13.498Z,19.18
2022-10-04T23:22:42.726Z,19.16
2022-10-04T23:25:34.836Z,19.14
2022-10-04T23:28:07.952Z,19.13
2022-10-04T23:30:34.520Z,19.11
2022-10-04T23:33:01.226Z,19.12
2022-10-04T23:35:32.765Z,19.12
2022-10-04T23:38:01.627Z,19.15
2022-10-04T23:40:28.303Z,19.13
2022-10-04T23:42:56.476Z,19.12
2022-10-04T23:45:25.564Z,19.11
2022-10-04T23:47:54.723Z,19.10
2022-10-04T23:50:25.843Z,19.13
2022-10-04T23:52:57.811Z,19.11
2022-10-04T23:55:28.502Z,19.11
2022-10-04T23:57:54.984Z,19.11
